Time;durP1;ratioP1;P1;durP2;ratioP2;P2;SDS_P1;SDS_P2;PMS_P1;PMS_P2;Temp;Humidity;BMP_temperature;BMP_pressure;BME280_temperature;BME280_humidity;BME280_pressure;Samples;Min_cycle;Max_cycle;Signal;HPM_P1;HPM_P2
2022/06/26 00:05:14;;;;;;;;;;;;;;;;;;;;;
2022/06/26 00:08:38;;;;;;;19.50;4.30;;;16.50;99.90;;;;;;6065698;23;20026;-74
2022/06/26 00:12:19;;;;;;;;;;;;;;;;;;;;;
2022/06/26 00:15:08;;;;;;;25.90;7.27;;;16.60;99.90;;;;;;5985703;23;20045;-72
2022/06/26 00:17:51;;;;;;;40.83;9.32;;;16.70;99.90;;;;;;6044937;23;20070;-74
2022/06/26 00:21:13;;;;;;;41.78;9.68;;;16.70;99.90;;;;;;6043834;23;20098;-73
2022/06/26 00:27:46;;;;;;;;;;;16.70;99.90;;;;;;6051579;23;20670;-73
2022/06/26 00:31:09;;;;;;;31.13;9.88;;;16.70;99.90;;;;;;5995823;23;19967;-73
2022/06/26 00:33:46;;;;;;;32.38;9.52;;;16.70;99.90;;;;;;6046715;23;20007;-73
2022/06/26 00:36:51;;;;;;;;;;;;;;;;;;;;;
2022/06/26 00:39:31;;;;;;;27.10;10.18;;;16.70;99.90;;;;;;6046199;23;20498;-72
2022/06/26 00:42:28;;;;;;;25.60;9.98;;;16.70;99.90;;;;;;6045338;23;20019;-74
2022/06/26 00:44:57;;;;;;;26.00;9.93;;;16.80;99.90;;;;;;6064029;23;20010;-73
2022/06/26 00:47:31;;;;;;;27.13;10.65;;;16.80;99.90;;;;;;6044147;23;20015;-73
2022/06/26 00:50:10;;;;;;;22.90;10.00;;;16.80;99.90;;;;;;6066634;23;20011;-72
2022/06/26 00:52:50;;;;;;;29.48;12.65;;;16.80;99.90;;;;;;6043533;23;20040;-72
2022/06/26 00:55:25;;;;;;;24.75;11.23;;;16.80;99.90;;;;;;6023035;23;20434;-73
2022/06/26 00:58:01;;;;;;;23.50;11.50;;;16.80;99.90;;;;;;6064533;23;20014;-73
2022/06/26 01:00:27;;;;;;;27.48;11.57;;;16.80;99.90;;;;;;6067405;23;20026;-73
2022/06/26 01:02:53;;;;;;;21.48;12.15;;;16.80;99.90;;;;;;6043523;23;20014;-72
2022/06/26 01:05:19;;;;;;;28.05;12.13;;;16.80;99.90;;;;;;6067350;23;20018;-72
2022/06/26 01:07:46;;;;;;;19.95;10.25;;;16.70;99.90;;;;;;6068829;23;20090;-72
2022/06/26 01:10:11;;;;;;;21.65;10.05;;;16.80;99.90;;;;;;6043505;23;20041;-73
2022/06/26 01:12:37;;;;;;;18.67;9.20;;;16.80;99.90;;;;;;6067189;23;20481;-72
2022/06/26 01:15:08;;;;;;;12.57;8.20;;;16.80;99.90;;;;;;6043617;23;20106;-72
2022/06/26 01:17:34;;;;;;;20.30;9.88;;;16.80;99.90;;;;;;6067513;23;20042;-73
2022/06/26 01:20:02;;;;;;;14.48;8.68;;;16.90;99.90;;;;;;6043573;23;20007;-73
2022/06/26 01:22:34;;;;;;;15.80;8.15;;;16.80;99.90;;;;;;6066954;23;20018;-72
2022/06/26 01:25:00;;;;;;;18.77;9.38;;;16.80;99.90;;;;;;6042845;23;20030;-71
2022/06/26 01:27:39;;;;;;;14.73;8.13;;;16.80;99.90;;;;;;6066645;23;20027;-73
2022/06/26 01:30:06;;;;;;;18.63;9.07;;;16.90;99.90;;;;;;6042994;23;20017;-72
2022/06/26 01:32:39;;;;;;;17.83;9.38;;;16.80;99.90;;;;;;6067646;23;20330;-73
2022/06/26 01:35:13;;;;;;;21.13;10.32;;;16.80;99.90;;;;;;6044379;23;20011;-72
2022/06/26 01:37:59;;;;;;;15.63;9.20;;;16.80;99.90;;;;;;6042802;23;20047;-72
2022/06/26 01:40:28;;;;;;;18.52;10.57;;;16.80;99.90;;;;;;6045349;23;20014;-71
2022/06/26 01:42:59;;;;;;;13.43;8.43;;;16.70;99.90;;;;;;6066537;23;20019;-73
2022/06/26 01:45:33;;;;;;;27.15;9.68;;;16.80;99.90;;;;;;6042816;23;20018;-73
2022/06/26 01:47:59;;;;;;;15.52;9.35;;;16.80;99.90;;;;;;6043193;23;20015;-72
2022/06/26 01:50:37;;;;;;;19.00;10.15;;;16.80;99.90;;;;;;6042073;23;20438;-73
2022/06/26 01:53:10;;;;;;;16.52;8.77;;;16.80;99.90;;;;;;6020674;23;20430;-72
2022/06/26 01:55:52;;;;;;;18.98;9.80;;;16.90;99.90;;;;;;6067225;23;20370;-72
2022/06/26 01:58:24;;;;;;;13.13;7.47;;;16.90;99.90;;;;;;6042980;23;20427;-73
2022/06/26 02:01:03;;;;;;;15.63;6.90;;;16.90;99.90;;;;;;6043307;23;20017;-73
2022/06/26 02:03:37;;;;;;;;;;;16.90;99.90;;;;;;6042914;23;20015;-73
2022/06/26 02:06:19;;;;;;;17.02;7.93;;;16.90;99.90;;;;;;6066967;23;19909;-72
2022/06/26 02:13:35;;;;;;;15.60;7.68;;;16.90;99.90;;;;;;6045276;23;20018;-73
2022/06/26 02:15:06;;;;;;;11.57;6.72;;;16.80;99.90;;;;;;6066460;23;20017;-73
2022/06/26 02:18:36;;;;;;;10.75;6.35;;;16.80;99.90;;;;;;6065823;23;20015;-73
2022/06/26 02:21:30;;;;;;;11.80;6.30;;;16.90;99.90;;;;;;6066555;23;20456;-73
2022/06/26 02:27:07;;;;;;;8.52;5.57;;;16.80;99.90;;;;;;6065607;23;20024;-73
2022/06/26 02:30:29;;;;;;;10.38;5.10;;;16.80;99.90;;;;;;5987220;23;20086;-73
2022/06/26 02:33:23;;;;;;;;;;;;;;;;;;;;;
2022/06/26 02:36:23;;;;;;;10.85;5.68;;;16.70;99.90;;;;;;6007257;23;20012;-74
2022/06/26 02:39:14;;;;;;;10.80;4.90;;;16.80;99.90;;;;;;5961946;23;20011;-73
2022/06/26 02:41:42;;;;;;;12.32;5.35;;;16.80;99.90;;;;;;6008005;23;20052;-73
2022/06/26 02:44:11;;;;;;;12.63;5.88;;;16.80;99.90;;;;;;5961274;23;20023;-72
2022/06/26 02:46:39;;;;;;;17.88;5.43;;;16.70;99.90;;;;;;6008586;23;20012;-72
2022/06/26 02:49:05;;;;;;;12.85;4.55;;;16.70;99.90;;;;;;6008274;23;20094;-73
2022/06/26 02:51:31;;;;;;;15.75;4.95;;;16.70;99.90;;;;;;5961830;23;20019;-71
2022/06/26 02:53:57;;;;;;;12.40;3.60;;;16.70;99.90;;;;;;5984491;23;20352;-72
2022/06/26 02:56:22;;;;;;;11.23;3.78;;;16.70;99.90;;;;;;6010547;23;20335;-72
2022/06/26 02:58:51;;;;;;;6.63;2.83;;;16.60;99.90;;;;;;5986695;23;20076;-71
2022/06/26 03:01:17;;;;;;;5.25;1.92;;;16.60;99.90;;;;;;6032609;23;20025;-70
2022/06/26 03:03:42;;;;;;;4.93;1.80;;;16.40;99.90;;;;;;6044454;23;20015;-71
2022/06/26 03:06:08;;;;;;;11.05;2.65;;;16.40;99.90;;;;;;6044656;23;20013;-72
2022/06/26 03:08:34;;;;;;;8.77;2.20;;;16.40;99.90;;;;;;6068559;23;20452;-71
2022/06/26 03:10:59;;;;;;;7.15;2.42;;;16.30;99.90;;;;;;6068064;23;20473;-72
2022/06/26 03:13:25;;;;;;;3.30;1.90;;;16.30;99.90;;;;;;6067744;23;20304;-71
2022/06/26 03:15:51;;;;;;;11.48;2.47;;;16.30;99.90;;;;;;6068682;23;20300;-71
2022/06/26 03:18:17;;;;;;;8.45;2.40;;;16.30;99.90;;;;;;6068099;23;20015;-71
2022/06/26 03:20:43;;;;;;;8.95;2.97;;;16.30;99.90;;;;;;6068493;23;20094;-72
2022/06/26 03:23:08;;;;;;;13.32;2.67;;;16.30;99.90;;;;;;6069718;23;20325;-71
2022/06/26 03:25:34;;;;;;;4.00;2.72;;;16.30;99.90;;;;;;6068236;23;20097;-71
2022/06/26 03:28:00;;;;;;;7.50;2.97;;;16.30;99.90;;;;;;6020762;23;20333;-71
2022/06/26 03:30:26;;;;;;;5.30;3.22;;;16.30;99.90;;;;;;6068014;23;20388;-71
2022/06/26 03:32:52;;;;;;;6.63;3.38;;;16.30;99.90;;;;;;6067782;23;20026;-71
2022/06/26 03:35:18;;;;;;;7.40;3.97;;;16.40;99.90;;;;;;6068317;23;20011;-72
2022/06/26 03:37:44;;;;;;;8.38;4.30;;;16.40;99.90;;;;;;6068181;23;20460;-71
2022/06/26 03:40:10;;;;;;;9.25;4.75;;;16.40;99.90;;;;;;6043959;23;20422;-71
2022/06/26 03:42:37;;;;;;;5.43;3.55;;;16.40;99.90;;;;;;6067692;23;20010;-71
2022/06/26 03:45:04;;;;;;;6.32;4.03;;;16.40;99.90;;;;;;6069438;23;20014;-70
2022/06/26 03:47:29;;;;;;;;;;;16.40;99.90;;;;;;6068627;23;20015;-72
2022/06/26 03:49:55;;;;;;;8.65;5.63;;;16.40;99.90;;;;;;6067853;23;19919;-72
2022/06/26 03:52:24;;;;;;;10.43;6.10;;;16.40;99.90;;;;;;6043891;23;20017;-71
2022/06/26 03:54:50;;;;;;;9.60;6.50;;;16.50;99.90;;;;;;6044211;23;20014;-71
2022/06/26 03:57:16;;;;;;;9.15;5.85;;;16.50;99.90;;;;;;6068193;23;20057;-71
2022/06/26 03:59:41;;;;;;;12.73;7.57;;;16.50;99.90;;;;;;6067912;23;20015;-71
2022/06/26 04:02:07;;;;;;;8.13;6.28;;;16.60;99.90;;;;;;6068096;23;20014;-71
2022/06/26 04:04:33;;;;;;;14.07;7.43;;;16.60;99.90;;;;;;6067821;23;20026;-71
2022/06/26 04:06:59;;;;;;;12.98;7.32;;;16.60;99.90;;;;;;6068143;23;20037;-71
2022/06/26 04:09:24;;;;;;;8.85;6.13;;;16.60;99.90;;;;;;6067723;23;20025;-70
2022/06/26 04:11:50;;;;;;;12.40;6.60;;;16.60;99.90;;;;;;6067640;23;20010;-71
2022/06/26 04:14:16;;;;;;;8.57;6.30;;;16.70;99.90;;;;;;6043827;23;20098;-72
2022/06/26 04:16:41;;;;;;;8.32;5.75;;;16.60;99.90;;;;;;6043484;23;20505;-72
2022/06/26 04:19:09;;;;;;;9.88;6.40;;;16.70;99.90;;;;;;6044068;23;20094;-71
2022/06/26 04:21:37;;;;;;;10.20;7.05;;;16.70;99.90;;;;;;6019830;23;20006;-70
2022/06/26 04:24:04;;;;;;;12.82;7.50;;;16.80;99.90;;;;;;6067307;23;20023;-71
2022/06/26 04:26:29;;;;;;;7.35;6.05;;;16.80;99.90;;;;;;6067888;23;20019;-71
2022/06/26 04:28:55;;;;;;;13.63;7.10;;;16.80;99.90;;;;;;6068971;23;20015;-72
2022/06/26 04:31:21;;;;;;;16.92;9.27;;;16.80;99.90;;;;;;6043492;23;20018;-72
2022/06/26 04:33:51;;;;;;;10.38;8.13;;;16.80;99.90;;;;;;6043085;23;20011;-71
2022/06/26 04:36:21;;;;;;;11.45;8.73;;;16.80;99.90;;;;;;6043851;23;20011;-71
2022/06/26 04:38:46;;;;;;;14.75;8.82;;;16.80;99.90;;;;;;6068693;23;20025;-71
2022/06/26 04:44:01;;;;;;;24.23;12.90;;;16.80;99.90;;;;;;6067419;23;20426;-71
2022/06/26 04:46:27;;;;;;;20.00;12.32;;;16.70;99.90;;;;;;6043482;23;20538;-71
2022/06/26 04:48:53;;;;;;;19.67;12.32;;;16.70;99.90;;;;;;6067725;23;20050;-71
2022/06/26 04:51:21;;;;;;;22.75;13.38;;;16.80;99.90;;;;;;6044839;23;20043;-72
2022/06/26 04:53:47;;;;;;;21.15;13.80;;;16.80;99.90;;;;;;6068946;23;20011;-71
2022/06/26 04:56:19;;;;;;;33.33;17.38;;;16.80;99.90;;;;;;6067583;23;20007;-72
2022/06/26 04:58:57;;;;;;;26.58;16.02;;;16.80;99.90;;;;;;6043207;23;20022;-73
2022/06/26 05:01:31;;;;;;;25.63;16.67;;;16.80;99.90;;;;;;6019852;23;20022;-72
2022/06/26 05:03:59;;;;;;;27.75;16.33;;;16.90;99.90;;;;;;6043042;23;20042;-71
2022/06/26 05:06:25;;;;;;;27.83;17.20;;;17.10;99.90;;;;;;6067172;23;20009;-72
2022/06/26 05:08:54;;;;;;;34.63;17.98;;;17.10;99.90;;;;;;6091555;23;20330;-71
2022/06/26 05:11:23;;;;;;;27.52;17.33;;;17.20;99.90;;;;;;6067349;23;20007;-72
2022/06/26 05:13:52;;;;;;;25.80;17.13;;;17.30;99.90;;;;;;6090854;23;20037;-72
2022/06/26 05:16:23;;;;;;;23.98;16.40;;;17.30;99.90;;;;;;6066916;23;20010;-71
2022/06/26 05:18:54;;;;;;;26.55;16.65;;;17.40;99.90;;;;;;6043769;23;20058;-71
2022/06/26 05:21:24;;;;;;;25.67;16.15;;;17.40;99.90;;;;;;6091501;23;20061;-70
2022/06/26 05:23:50;;;;;;;24.50;15.70;;;17.50;99.90;;;;;;6067213;23;20018;-69
2022/06/26 05:26:15;;;;;;;28.77;16.38;;;17.40;99.90;;;;;;6067357;23;20462;-70
2022/06/26 05:28:41;;;;;;;27.58;15.45;;;17.40;99.90;;;;;;6042996;23;20019;-69
2022/06/26 05:31:07;;;;;;;24.80;15.23;;;17.30;99.90;;;;;;6043219;23;20019;-69
2022/06/26 05:34:05;;;;;;;23.17;15.02;;;17.30;99.90;;;;;;6066846;23;20524;-74
2022/06/26 05:55:33;;;;;;;21.45;14.88;;;17.50;99.90;;;;;;6068297;23;20070;-76
2022/06/26 05:58:27;;;;;;;24.05;15.38;;;17.60;99.90;;;;;;6041266;23;20015;-72
2022/06/26 06:01:19;;;;;;;19.98;12.50;;;17.70;99.90;;;;;;6064966;23;20093;-71
2022/06/26 06:18:24;;;;;;;13.43;9.43;;;18.00;99.90;;;;;;5897310;24;20040;-73
2022/06/26 18:57:41;;;;;;;8.70;2.90;;;20.50;92.10;;;;;;6085928;23;20029;-74
2022/06/26 19:39:09;;;;;;;9.25;2.83;;;20.00;93.60;;;;;;6036518;23;20070;-70
2022/06/26 19:52:36;;;;;;;7.47;3.13;;;19.80;94.10;;;;;;5959814;24;20388;-74
2022/06/26 19:55:23;;;;;;;8.30;3.15;;;19.70;94.20;;;;;;6032120;23;20007;-78
2022/06/26 19:58:09;;;;;;;10.55;4.00;;;19.60;93.80;;;;;;6001476;23;20011;-77
2022/06/26 20:00:48;;;;;;;8.23;3.88;;;19.50;95.00;;;;;;5993100;23;20034;-80
2022/06/26 20:04:13;;;;;;;11.63;3.85;;;19.50;94.90;;;;;;6075483;23;20092;-78
2022/06/26 20:06:42;;;;;;;10.57;4.03;;;19.40;95.10;;;;;;6129914;23;20327;-78
2022/06/26 20:12:28;;;;;;;7.17;3.20;;;19.20;95.20;;;;;;6105560;23;20068;-79
2022/06/26 20:15:35;;;;;;;7.20;3.55;;;19.10;95.40;;;;;;6106218;23;20068;-78
2022/06/26 20:18:05;;;;;;;7.15;3.47;;;19.10;96.30;;;;;;6130435;23;20032;-68
2022/06/26 20:24:06;;;;;;;;;;;19.00;96.30;;;;;;6156325;23;20041;-70
2022/06/26 20:26:34;;;;;;;7.43;3.80;;;18.80;97.40;;;;;;6130540;23;19909;-76
2022/06/26 20:28:59;;;;;;;9.27;4.38;;;18.90;96.40;;;;;;6130317;23;20021;-74
2022/06/26 20:31:25;;;;;;;7.80;3.97;;;18.90;96.50;;;;;;6105723;23;20336;-75
2022/06/26 20:34:00;;;;;;;8.85;3.80;;;18.80;96.40;;;;;;6130600;23;20052;-69
2022/06/26 20:36:52;;;;;;;7.22;4.00;;;18.80;96.60;;;;;;6105970;23;20024;-73
2022/06/26 20:39:18;;;;;;;8.35;3.55;;;18.80;97.20;;;;;;6098633;23;20009;-69
2022/06/26 20:41:43;;;;;;;;;;;18.80;96.80;;;;;;6105813;23;20009;-69
2022/06/26 20:44:09;;;;;;;8.18;4.90;;;18.80;98.10;;;;;;6130355;23;19941;-69
2022/06/26 20:46:36;;;;;;;10.93;5.40;;;18.70;97.50;;;;;;6156208;23;20017;-70
2022/06/26 20:49:02;;;;;;;;;;;18.70;97.30;;;;;;6129914;23;20010;-68
2022/06/26 20:51:28;;;;;;;7.47;4.57;;;18.70;98.10;;;;;;6129626;23;20303;-71
2022/06/26 20:54:06;;;;;;;10.63;5.50;;;18.60;97.50;;;;;;6105362;23;20009;-71
2022/06/26 20:56:35;;;;;;;10.02;5.53;;;18.70;98.10;;;;;;6083031;23;20020;-70
2022/06/26 21:02:32;;;;;;;8.38;5.45;;;18.60;98.10;;;;;;6155726;23;20017;-70
2022/06/26 21:04:58;;;;;;;;;;;18.60;97.50;;;;;;6081843;23;20016;-71
2022/06/26 21:07:24;;;;;;;7.30;5.03;;;18.60;98.10;;;;;;6105693;23;19909;-69
2022/06/26 21:09:50;;;;;;;10.18;5.07;;;18.60;97.60;;;;;;6129684;23;20015;-68
2022/06/26 21:12:16;;;;;;;8.65;4.90;;;18.60;97.60;;;;;;6130278;23;20328;-69
2022/06/26 21:14:50;;;;;;;13.05;5.35;;;18.60;97.60;;;;;;6129985;23;20014;-72
2022/06/26 21:17:34;;;;;;;7.95;5.25;;;18.60;97.80;;;;;;6126381;23;20013;-69
2022/06/26 21:20:00;;;;;;;15.85;5.75;;;18.60;98.00;;;;;;6129183;23;20315;-68
2022/06/26 21:22:25;;;;;;;12.38;6.22;;;18.60;97.70;;;;;;6129426;23;20429;-69
2022/06/26 21:24:51;;;;;;;8.50;5.75;;;18.60;97.60;;;;;;6129474;23;20088;-70
2022/06/26 21:27:17;;;;;;;12.20;5.78;;;18.60;97.90;;;;;;6105836;23;20019;-68
2022/06/26 21:29:42;;;;;;;10.07;5.40;;;18.50;97.90;;;;;;6130902;23;20078;-69
2022/06/26 21:32:08;;;;;;;11.68;4.95;;;18.50;97.90;;;;;;6156659;23;20009;-68
2022/06/26 21:34:34;;;;;;;;;;;18.50;98.00;;;;;;6130355;23;20041;-68
2022/06/26 21:37:12;;;;;;;9.65;4.22;;;18.40;99.00;;;;;;6129966;23;20294;-74
2022/06/26 21:39:38;;;;;;;8.43;5.13;;;18.30;98.10;;;;;;6103520;23;20444;-73
2022/06/26 21:42:06;;;;;;;10.68;5.30;;;18.30;98.10;;;;;;6103828;23;20100;-73
2022/06/26 21:44:32;;;;;;;11.30;5.30;;;18.20;98.20;;;;;;6105330;23;20056;-75
2022/06/26 21:46:58;;;;;;;14.10;5.70;;;18.20;98.40;;;;;;6129951;23;20421;-74
2022/06/26 21:49:26;;;;;;;9.65;5.68;;;18.10;98.50;;;;;;6128869;23;20024;-73
2022/06/26 21:51:52;;;;;;;10.15;5.47;;;18.10;98.70;;;;;;6129867;23;20092;-74
2022/06/26 21:54:18;;;;;;;9.75;6.35;;;18.10;98.70;;;;;;6105254;23;20044;-75
2022/06/26 21:56:44;;;;;;;11.52;5.53;;;18.00;98.90;;;;;;6105091;23;20013;-74
2022/06/26 21:59:13;;;;;;;9.65;5.65;;;18.00;99.00;;;;;;6129980;23;20049;-75
2022/06/26 22:01:39;;;;;;;10.57;5.18;;;17.90;99.00;;;;;;6105468;23;20293;-73
2022/06/26 22:04:08;;;;;;;13.20;5.20;;;18.00;99.00;;;;;;6130282;23;20320;-75
2022/06/26 22:06:36;;;;;;;13.43;5.80;;;18.00;99.10;;;;;;6105585;23;20068;-74
2022/06/26 22:09:02;;;;;;;12.32;5.90;;;17.90;99.30;;;;;;6129826;23;20432;-75
2022/06/26 22:11:31;;;;;;;9.63;6.28;;;17.90;99.40;;;;;;6103548;23;20010;-74
2022/06/26 22:13:59;;;;;;;10.27;5.72;;;17.90;99.50;;;;;;6081914;23;20014;-74
2022/06/26 22:16:32;;;;;;;8.73;5.60;;;17.80;99.50;;;;;;6129912;23;20049;-73
2022/06/26 22:19:01;;;;;;;11.48;5.30;;;17.80;99.60;;;;;;6105704;23;20041;-74
2022/06/26 22:21:27;;;;;;;11.45;5.00;;;17.80;99.50;;;;;;6129972;23;20010;-74
2022/06/26 22:23:58;;;;;;;9.10;5.38;;;17.80;99.50;;;;;;6081277;23;20040;-75
2022/06/26 22:29:12;;;;;;;14.00;5.15;;;17.70;99.50;;;;;;6130029;23;20025;-75
2022/06/26 22:31:45;;;;;;;9.18;5.00;;;17.70;99.60;;;;;;6101438;23;20014;-75
2022/06/26 22:34:10;;;;;;;11.02;4.97;;;17.70;99.60;;;;;;6075960;23;20080;-75
2022/06/26 22:36:39;;;;;;;9.55;4.93;;;17.60;99.50;;;;;;6076761;23;20041;-74
2022/06/26 22:39:09;;;;;;;8.05;4.53;;;17.70;99.60;;;;;;6100550;23;20021;-74
2022/06/26 22:41:37;;;;;;;9.82;4.90;;;17.70;99.70;;;;;;6076992;23;20021;-73
2022/06/26 22:44:06;;;;;;;9.75;4.70;;;17.60;99.80;;;;;;6076442;23;20053;-74
2022/06/26 22:46:34;;;;;;;9.25;5.05;;;17.60;99.80;;;;;;6075367;23;20357;-75
2022/06/26 22:49:00;;;;;;;8.90;4.70;;;17.60;99.80;;;;;;6076358;23;20018;-74
2022/06/26 22:51:26;;;;;;;8.70;5.05;;;17.60;99.90;;;;;;6076627;23;20045;-74
2022/06/26 22:53:55;;;;;;;11.27;4.80;;;17.70;99.90;;;;;;6100108;23;20311;-73
2022/06/26 22:56:24;;;;;;;7.63;4.78;;;17.60;99.80;;;;;;6052169;23;20060;-73
2022/06/26 22:58:49;;;;;;;8.70;4.53;;;17.70;99.90;;;;;;6100428;23;20029;-75
2022/06/26 23:01:16;;;;;;;7.30;4.90;;;17.60;99.80;;;;;;6100642;23;20089;-75
2022/06/26 23:03:47;;;;;;;10.73;4.88;;;17.60;99.90;;;;;;6081510;23;20018;-74
2022/06/26 23:06:14;;;;;;;7.65;4.93;;;17.60;99.80;;;;;;6113684;23;20081;-75
2022/06/26 23:08:41;;;;;;;7.93;5.32;;;17.60;99.70;;;;;;6108047;23;20020;-74
2022/06/26 23:11:07;;;;;;;9.77;4.30;;;17.60;99.90;;;;;;6076359;23;20017;-73
2022/06/26 23:13:35;;;;;;;9.95;4.57;;;17.60;99.90;;;;;;6078477;23;20014;-73
2022/06/26 23:16:01;;;;;;;11.25;4.20;;;17.60;99.90;;;;;;6101541;23;20145;-74
2022/06/26 23:18:27;;;;;;;6.20;4.15;;;17.50;99.90;;;;;;6078219;23;20046;-74
2022/06/26 23:20:56;;;;;;;9.55;5.22;;;17.50;99.90;;;;;;6078610;23;20463;-74
2022/06/26 23:23:25;;;;;;;8.40;4.47;;;17.50;99.90;;;;;;6077908;23;20018;-73
2022/06/26 23:25:51;;;;;;;7.43;5.03;;;17.40;99.90;;;;;;6077501;23;20018;-74
2022/06/26 23:28:19;;;;;;;8.38;5.25;;;17.40;99.90;;;;;;6078183;23;20024;-74
2022/06/26 23:30:45;;;;;;;9.23;4.88;;;17.40;99.90;;;;;;6102173;23;20325;-74
2022/06/26 23:33:11;;;;;;;11.88;5.05;;;17.40;99.90;;;;;;6078139;23;20056;-74
2022/06/26 23:35:39;;;;;;;10.63;4.88;;;17.40;99.90;;;;;;6101648;23;20041;-75
2022/06/26 23:38:05;;;;;;;7.97;4.93;;;17.40;99.90;;;;;;6101303;23;20036;-73
2022/06/26 23:40:31;;;;;;;9.75;6.10;;;17.40;99.90;;;;;;6078281;23;20464;-73
2022/06/26 23:42:59;;;;;;;9.13;5.85;;;17.40;99.90;;;;;;6078195;23;20402;-74
2022/06/26 23:45:25;;;;;;;9.02;5.60;;;17.30;99.90;;;;;;6053425;23;20018;-74
2022/06/26 23:47:56;;;;;;;7.45;5.30;;;17.30;99.90;;;;;;6098391;23;20309;-73
2022/06/26 23:50:33;;;;;;;15.45;6.00;;;17.30;99.90;;;;;;6077753;23;20508;-75
2022/06/26 23:52:58;;;;;;;9.48;6.25;;;17.30;99.90;;;;;;6101786;23;20454;-74
2022/06/26 23:55:27;;;;;;;11.35;6.25;;;17.30;99.90;;;;;;6077921;23;20049;-74
2022/06/26 23:57:53;;;;;;;11.25;6.43;;;17.20;99.90;;;;;;6102087;23;20081;-74
